sensor_id;sensor_type;location;lat;lon;timestamp;temperature;humidity
32400;DHT22;45045;45.440;9.178;2024-03-23T00:54:38;21.70;99.90
32400;DHT22;45045;45.440;9.178;2024-03-23T00:57:03;21.60;99.90
32400;DHT22;45045;45.440;9.178;2024-03-23T00:59:29;21.60;99.90
32400;DHT22;45045;45.440;9.178;2024-03-23T01:01:56;21.60;99.90
32400;DHT22;45045;45.440;9.178;2024-03-23T01:04:22;21.60;99.90
32400;DHT22;45045;45.440;9.178;2024-03-23T01:06:48;21.60;99.90
32400;DHT22;45045;45.440;9.178;2024-03-23T01:09:13;21.50;99.90
32400;DHT22;45045;45.440;9.178;2024-03-23T01:11:39;21.50;99.90
32400;DHT22;45045;45.440;9.178;2024-03-23T01:14:06;21.50;99.90
32400;DHT22;45045;45.440;9.178;2024-03-23T01:16:32;21.50;99.90
32400;DHT22;45045;45.440;9.178;2024-03-23T01:18:58;21.50;99.90
32400;DHT22;45045;45.440;9.178;2024-03-23T01:21:23;21.50;99.90
32400;DHT22;45045;45.440;9.178;2024-03-23T01:23:49;21.50;99.90
32400;DHT22;45045;45.440;9.178;2024-03-23T01:26:15;21.50;99.90
32400;DHT22;45045;45.440;9.178;2024-03-23T01:28:40;21.40;99.90
32400;DHT22;45045;45.440;9.178;2024-03-23T01:31:06;21.40;99.90
32400;DHT22;45045;45.440;9.178;2024-03-23T01:33:32;21.40;99.90
32400;DHT22;45045;45.440;9.178;2024-03-23T01:35:58;21.40;99.90
32400;DHT22;45045;45.440;9.178;2024-03-23T01:38:23;21.40;99.90
32400;DHT22;45045;45.440;9.178;2024-03-23T01:40:49;21.40;99.90
32400;DHT22;45045;45.440;9.178;2024-03-23T01:43:15;21.30;99.90
32400;DHT22;45045;45.440;9.178;2024-03-23T01:45:40;21.30;99.90
32400;DHT22;45045;45.440;9.178;2024-03-23T01:48:06;21.30;99.90
32400;DHT22;45045;45.440;9.178;2024-03-23T01:50:32;21.30;99.90
32400;DHT22;45045;45.440;9.178;2024-03-23T01:53:02;21.30;99.90
32400;DHT22;45045;45.440;9.178;2024-03-23T01:55:28;21.30;99.90
32400;DHT22;45045;45.440;9.178;2024-03-23T01:57:56;21.20;99.90
32400;DHT22;45045;45.440;9.178;2024-03-23T02:00:23;21.20;99.90
32400;DHT22;45045;45.440;9.178;2024-03-23T02:02:48;21.20;99.90
32400;DHT22;45045;45.440;9.178;2024-03-23T02:05:14;21.20;99.90
32400;DHT22;45045;45.440;9.178;2024-03-23T02:07:42;21.20;99.90
32400;DHT22;45045;45.440;9.178;2024-03-23T02:10:09;21.20;99.90
32400;DHT22;45045;45.440;9.178;2024-03-23T02:12:36;21.20;99.90
32400;DHT22;45045;45.440;9.178;2024-03-23T02:15:02;21.20;99.90
32400;DHT22;45045;45.440;9.178;2024-03-23T02:17:30;21.10;99.90
32400;DHT22;45045;45.440;9.178;2024-03-23T02:19:57;21.20;99.90
32400;DHT22;45045;45.440;9.178;2024-03-23T02:22:23;21.10;99.90
32400;DHT22;45045;45.440;9.178;2024-03-23T02:24:48;21.10;99.90
32400;DHT22;45045;45.440;9.178;2024-03-23T02:27:14;21.10;99.90
32400;DHT22;45045;45.440;9.178;2024-03-23T02:29:40;21.10;99.90
32400;DHT22;45045;45.440;9.178;2024-03-23T02:32:06;21.10;99.90
32400;DHT22;45045;45.440;9.178;2024-03-23T02:34:31;21.00;99.90
32400;DHT22;45045;45.440;9.178;2024-03-23T02:36:57;21.00;99.90
32400;DHT22;45045;45.440;9.178;2024-03-23T02:39:23;21.00;99.90
32400;DHT22;45045;45.440;9.178;2024-03-23T02:41:48;21.00;99.90
32400;DHT22;45045;45.440;9.178;2024-03-23T02:44:14;21.00;99.90
32400;DHT22;45045;45.440;9.178;2024-03-23T02:46:40;20.90;99.90
32400;DHT22;45045;45.440;9.178;2024-03-23T02:49:07;21.00;99.90
32400;DHT22;45045;45.440;9.178;2024-03-23T02:51:33;21.00;99.90
32400;DHT22;45045;45.440;9.178;2024-03-23T02:53:58;20.90;99.90
32400;DHT22;45045;45.440;9.178;2024-03-23T02:56:24;20.90;99.90
32400;DHT22;45045;45.440;9.178;2024-03-23T02:58:50;20.90;99.90
32400;DHT22;45045;45.440;9.178;2024-03-23T03:01:15;20.90;99.90
32400;DHT22;45045;45.440;9.178;2024-03-23T03:03:41;20.90;99.90
32400;DHT22;45045;45.440;9.178;2024-03-23T03:06:07;20.90;99.90
32400;DHT22;45045;45.440;9.178;2024-03-23T03:08:32;20.90;99.90
32400;DHT22;45045;45.440;9.178;2024-03-23T03:10:58;20.90;99.90
32400;DHT22;45045;45.440;9.178;2024-03-23T03:13:24;20.80;99.90
32400;DHT22;45045;45.440;9.178;2024-03-23T03:15:49;20.90;99.90
32400;DHT22;45045;45.440;9.178;2024-03-23T03:18:15;20.80;99.90
32400;DHT22;45045;45.440;9.178;2024-03-23T03:20:41;20.80;99.90
32400;DHT22;45045;45.440;9.178;2024-03-23T03:23:07;20.90;99.90
32400;DHT22;45045;45.440;9.178;2024-03-23T03:25:33;20.80;99.90
32400;DHT22;45045;45.440;9.178;2024-03-23T03:27:59;20.80;99.90
32400;DHT22;45045;45.440;9.178;2024-03-23T03:30:25;20.70;99.90
32400;DHT22;45045;45.440;9.178;2024-03-23T03:32:53;20.70;99.90
32400;DHT22;45045;45.440;9.178;2024-03-23T03:35:20;20.70;99.90
32400;DHT22;45045;45.440;9.178;2024-03-23T03:37:45;20.70;99.90
32400;DHT22;45045;45.440;9.178;2024-03-23T03:40:12;20.70;99.90
32400;DHT22;45045;45.440;9.178;2024-03-23T03:42:38;20.70;99.90
32400;DHT22;45045;45.440;9.178;2024-03-23T03:45:04;20.70;99.90
32400;DHT22;45045;45.440;9.178;2024-03-23T03:47:30;20.70;99.90
32400;DHT22;45045;45.440;9.178;2024-03-23T03:49:56;20.60;99.90
32400;DHT22;45045;45.440;9.178;2024-03-23T03:52:22;20.60;99.90
32400;DHT22;45045;45.440;9.178;2024-03-23T03:54:47;20.60;99.90
32400;DHT22;45045;45.440;9.178;2024-03-23T03:57:13;20.40;99.90
32400;DHT22;45045;45.440;9.178;2024-03-23T03:59:39;20.40;99.90
32400;DHT22;45045;45.440;9.178;2024-03-23T04:02:04;20.30;99.90
32400;DHT22;45045;45.440;9.178;2024-03-23T04:04:30;20.30;99.90
32400;DHT22;45045;45.440;9.178;2024-03-23T04:07:02;20.30;99.90
32400;DHT22;45045;45.440;9.178;2024-03-23T04:09:28;20.20;99.90
32400;DHT22;45045;45.440;9.178;2024-03-23T04:11:54;20.30;99.90
32400;DHT22;45045;45.440;9.178;2024-03-23T04:14:20;20.30;99.90
32400;DHT22;45045;45.440;9.178;2024-03-23T04:16:45;20.20;99.90
32400;DHT22;45045;45.440;9.178;2024-03-23T04:19:11;20.20;99.90
32400;DHT22;45045;45.440;9.178;2024-03-23T04:21:40;20.10;99.90
32400;DHT22;45045;45.440;9.178;2024-03-23T04:24:06;20.20;99.90
32400;DHT22;45045;45.440;9.178;2024-03-23T04:26:42;20.30;99.90
32400;DHT22;45045;45.440;9.178;2024-03-23T04:29:08;20.20;99.90
32400;DHT22;45045;45.440;9.178;2024-03-23T04:31:33;20.10;99.90
32400;DHT22;45045;45.440;9.178;2024-03-23T04:34:01;20.20;99.90
32400;DHT22;45045;45.440;9.178;2024-03-23T04:36:26;20.20;99.90
32400;DHT22;45045;45.440;9.178;2024-03-23T04:38:52;20.30;99.90
32400;DHT22;45045;45.440;9.178;2024-03-23T04:41:18;20.30;99.90
32400;DHT22;45045;45.440;9.178;2024-03-23T04:43:45;20.20;99.90
32400;DHT22;45045;45.440;9.178;2024-03-23T04:46:10;20.20;99.90
32400;DHT22;45045;45.440;9.178;2024-03-23T04:48:36;20.20;99.90
32400;DHT22;45045;45.440;9.178;2024-03-23T04:51:03;20.20;99.90
32400;DHT22;45045;45.440;9.178;2024-03-23T04:53:29;20.20;99.90
32400;DHT22;45045;45.440;9.178;2024-03-23T04:55:58;20.10;99.90
32400;DHT22;45045;45.440;9.178;2024-03-23T04:58:27;20.10;99.90
32400;DHT22;45045;45.440;9.178;2024-03-23T05:00:59;20.10;99.90
32400;DHT22;45045;45.440;9.178;2024-03-23T05:03:24;20.20;99.90
32400;DHT22;45045;45.440;9.178;2024-03-23T05:05:50;20.10;99.90
32400;DHT22;45045;45.440;9.178;2024-03-23T05:08:16;20.10;99.90
32400;DHT22;45045;45.440;9.178;2024-03-23T05:10:43;20.00;99.90
32400;DHT22;45045;45.440;9.178;2024-03-23T05:13:09;20.00;99.90
32400;DHT22;45045;45.440;9.178;2024-03-23T05:15:35;20.00;99.90
32400;DHT22;45045;45.440;9.178;2024-03-23T05:18:00;20.00;99.90
32400;DHT22;45045;45.440;9.178;2024-03-23T05:20:26;20.00;99.90
32400;DHT22;45045;45.440;9.178;2024-03-23T05:22:54;20.00;99.90
32400;DHT22;45045;45.440;9.178;2024-03-23T05:25:20;20.00;99.90
32400;DHT22;45045;45.440;9.178;2024-03-23T05:27:46;20.00;99.90
32400;DHT22;45045;45.440;9.178;2024-03-23T05:30:11;20.00;99.90
32400;DHT22;45045;45.440;9.178;2024-03-23T05:32:37;20.00;99.90
32400;DHT22;45045;45.440;9.178;2024-03-23T05:35:06;20.00;99.90
32400;DHT22;45045;45.440;9.178;2024-03-23T05:37:33;20.00;99.90
32400;DHT22;45045;45.440;9.178;2024-03-23T05:39:59;20.00;99.90
32400;DHT22;45045;45.440;9.178;2024-03-23T05:42:25;20.00;99.90
32400;DHT22;45045;45.440;9.178;2024-03-23T05:44:52;20.00;99.90
32400;DHT22;45045;45.440;9.178;2024-03-23T05:47:17;20.00;99.90
32400;DHT22;45045;45.440;9.178;2024-03-23T05:49:43;20.00;99.90
32400;DHT22;45045;45.440;9.178;2024-03-23T05:52:11;20.00;99.90
32400;DHT22;45045;45.440;9.178;2024-03-23T05:54:37;20.00;99.90
32400;DHT22;45045;45.440;9.178;2024-03-23T05:57:03;20.00;99.90
32400;DHT22;45045;45.440;9.178;2024-03-23T05:59:29;19.90;99.90
32400;DHT22;45045;45.440;9.178;2024-03-23T06:01:55;19.90;99.90
32400;DHT22;45045;45.440;9.178;2024-03-23T06:04:21;20.00;99.90
32400;DHT22;45045;45.440;9.178;2024-03-23T06:06:50;19.90;99.90
32400;DHT22;45045;45.440;9.178;2024-03-23T06:09:17;20.00;99.90
32400;DHT22;45045;45.440;9.178;2024-03-23T06:11:42;20.00;99.90
32400;DHT22;45045;45.440;9.178;2024-03-23T06:14:08;19.90;99.90
32400;DHT22;45045;45.440;9.178;2024-03-23T06:16:33;19.90;99.90
32400;DHT22;45045;45.440;9.178;2024-03-23T06:18:59;19.90;99.90
32400;DHT22;45045;45.440;9.178;2024-03-23T06:21:25;20.00;99.90
32400;DHT22;45045;45.440;9.178;2024-03-23T06:23:52;20.00;99.90
32400;DHT22;45045;45.440;9.178;2024-03-23T06:26:18;20.00;99.90
32400;DHT22;45045;45.440;9.178;2024-03-23T06:28:45;19.90;99.90
32400;DHT22;45045;45.440;9.178;2024-03-23T06:31:10;20.00;99.90
32400;DHT22;45045;45.440;9.178;2024-03-23T06:33:36;19.90;99.90
32400;DHT22;45045;45.440;9.178;2024-03-23T06:36:02;19.90;99.90
32400;DHT22;45045;45.440;9.178;2024-03-23T06:38:28;19.90;99.90
32400;DHT22;45045;45.440;9.178;2024-03-23T06:40:54;19.90;99.90
32400;DHT22;45045;45.440;9.178;2024-03-23T06:43:20;19.90;99.90
32400;DHT22;45045;45.440;9.178;2024-03-23T06:45:53;20.00;99.90
32400;DHT22;45045;45.440;9.178;2024-03-23T06:48:19;20.00;99.90
32400;DHT22;45045;45.440;9.178;2024-03-23T06:50:45;20.00;99.90
32400;DHT22;45045;45.440;9.178;2024-03-23T06:53:14;20.10;99.90
32400;DHT22;45045;45.440;9.178;2024-03-23T06:55:41;20.10;99.90
32400;DHT22;45045;45.440;9.178;2024-03-23T06:58:07;20.10;99.90
32400;DHT22;45045;45.440;9.178;2024-03-23T07:00:33;20.20;99.90
32400;DHT22;45045;45.440;9.178;2024-03-23T07:03:00;20.20;99.90
32400;DHT22;45045;45.440;9.178;2024-03-23T07:05:26;20.20;99.90
32400;DHT22;45045;45.440;9.178;2024-03-23T07:07:51;20.30;99.90
32400;DHT22;45045;45.440;9.178;2024-03-23T07:10:17;20.30;99.90
32400;DHT22;45045;45.440;9.178;2024-03-23T07:12:43;20.30;99.90
32400;DHT22;45045;45.440;9.178;2024-03-23T07:15:09;20.30;99.90
32400;DHT22;45045;45.440;9.178;2024-03-23T07:17:35;20.30;99.90
32400;DHT22;45045;45.440;9.178;2024-03-23T07:20:01;20.30;99.90
32400;DHT22;45045;45.440;9.178;2024-03-23T07:22:30;20.30;99.90
32400;DHT22;45045;45.440;9.178;2024-03-23T07:24:55;20.40;99.90
32400;DHT22;45045;45.440;9.178;2024-03-23T07:27:21;20.40;99.90
32400;DHT22;45045;45.440;9.178;2024-03-23T07:29:49;20.30;99.90
32400;DHT22;45045;45.440;9.178;2024-03-23T07:32:14;20.40;99.90
32400;DHT22;45045;45.440;9.178;2024-03-23T07:34:40;20.30;99.90
32400;DHT22;45045;45.440;9.178;2024-03-23T07:37:06;20.30;99.90
32400;DHT22;45045;45.440;9.178;2024-03-23T07:39:31;20.40;99.90
32400;DHT22;45045;45.440;9.178;2024-03-23T07:41:59;20.30;99.90
32400;DHT22;45045;45.440;9.178;2024-03-23T07:44:25;20.40;99.90
32400;DHT22;45045;45.440;9.178;2024-03-23T07:46:50;20.30;99.90
32400;DHT22;45045;45.440;9.178;2024-03-23T07:49:16;20.40;99.90
32400;DHT22;45045;45.440;9.178;2024-03-23T07:51:41;20.40;99.90
32400;DHT22;45045;45.440;9.178;2024-03-23T07:54:07;20.40;99.90
32400;DHT22;45045;45.440;9.178;2024-03-23T07:56:33;20.50;99.90
32400;DHT22;45045;45.440;9.178;2024-03-23T07:58:59;20.50;99.90
32400;DHT22;45045;45.440;9.178;2024-03-23T08:01:25;20.50;99.90
32400;DHT22;45045;45.440;9.178;2024-03-23T08:03:51;20.50;99.90
32400;DHT22;45045;45.440;9.178;2024-03-23T08:06:18;20.50;99.90
32400;DHT22;45045;45.440;9.178;2024-03-23T08:08:49;20.50;99.90
32400;DHT22;45045;45.440;9.178;2024-03-23T08:11:16;20.50;99.90
32400;DHT22;45045;45.440;9.178;2024-03-23T08:13:42;20.50;99.90
32400;DHT22;45045;45.440;9.178;2024-03-23T08:16:10;20.50;99.90
32400;DHT22;45045;45.440;9.178;2024-03-23T08:18:36;20.50;99.90
32400;DHT22;45045;45.440;9.178;2024-03-23T08:21:04;20.50;99.90
32400;DHT22;45045;45.440;9.178;2024-03-23T08:23:31;20.50;99.90
32400;DHT22;45045;45.440;9.178;2024-03-23T08:26:06;20.50;99.90
32400;DHT22;45045;45.440;9.178;2024-03-23T08:28:32;20.60;99.90
32400;DHT22;45045;45.440;9.178;2024-03-23T08:31:02;20.60;99.90
32400;DHT22;45045;45.440;9.178;2024-03-23T08:33:28;20.60;99.90
32400;DHT22;45045;45.440;9.178;2024-03-23T08:36:01;20.60;99.90
32400;DHT22;45045;45.440;9.178;2024-03-23T08:38:28;20.60;99.90
32400;DHT22;45045;45.440;9.178;2024-03-23T08:41:02;20.70;99.90
32400;DHT22;45045;45.440;9.178;2024-03-23T08:43:29;20.80;99.90
32400;DHT22;45045;45.440;9.178;2024-03-23T08:48:35;20.90;99.90
32400;DHT22;45045;45.440;9.178;2024-03-23T08:51:08;21.10;99.90
32400;DHT22;45045;45.440;9.178;2024-03-23T08:53:35;21.20;99.90
32400;DHT22;45045;45.440;9.178;2024-03-23T08:56:01;21.30;99.90
32400;DHT22;45045;45.440;9.178;2024-03-23T08:58:29;21.40;99.90
32400;DHT22;45045;45.440;9.178;2024-03-23T09:00:56;21.50;99.90
32400;DHT22;45045;45.440;9.178;2024-03-23T09:03:25;21.60;99.90
32400;DHT22;45045;45.440;9.178;2024-03-23T09:05:51;21.70;99.90
32400;DHT22;45045;45.440;9.178;2024-03-23T09:08:18;21.50;99.90
32400;DHT22;45045;45.440;9.178;2024-03-23T09:10:44;21.40;99.90
32400;DHT22;45045;45.440;9.178;2024-03-23T09:13:10;21.50;99.90
32400;DHT22;45045;45.440;9.178;2024-03-23T09:15:44;21.50;99.90
32400;DHT22;45045;45.440;9.178;2024-03-23T09:18:10;21.50;99.90
32400;DHT22;45045;45.440;9.178;2024-03-23T09:20:36;21.60;99.90
32400;DHT22;45045;45.440;9.178;2024-03-23T09:23:01;21.60;99.90
32400;DHT22;45045;45.440;9.178;2024-03-23T09:25:27;21.50;99.90
32400;DHT22;45045;45.440;9.178;2024-03-23T09:27:53;21.80;99.90
32400;DHT22;45045;45.440;9.178;2024-03-23T09:30:18;21.80;99.90
32400;DHT22;45045;45.440;9.178;2024-03-23T09:32:45;22.00;99.90
32400;DHT22;45045;45.440;9.178;2024-03-23T09:35:11;22.10;99.90
32400;DHT22;45045;45.440;9.178;2024-03-23T09:37:38;22.10;99.90
32400;DHT22;45045;45.440;9.178;2024-03-23T09:40:09;22.40;99.90
32400;DHT22;45045;45.440;9.178;2024-03-23T09:42:35;22.60;99.80
32400;DHT22;45045;45.440;9.178;2024-03-23T09:45:00;22.60;99.70
32400;DHT22;45045;45.440;9.178;2024-03-23T09:47:26;22.50;99.90
32400;DHT22;45045;45.440;9.178;2024-03-23T09:49:52;22.70;99.80
32400;DHT22;45045;45.440;9.178;2024-03-23T09:52:19;22.60;99.70
32400;DHT22;45045;45.440;9.178;2024-03-23T09:54:45;22.60;99.60
32400;DHT22;45045;45.440;9.178;2024-03-23T09:57:10;22.70;99.80
32400;DHT22;45045;45.440;9.178;2024-03-23T09:59:36;22.70;99.50
32400;DHT22;45045;45.440;9.178;2024-03-23T10:02:04;22.60;99.50
32400;DHT22;45045;45.440;9.178;2024-03-23T10:04:40;22.50;99.50
32400;DHT22;45045;45.440;9.178;2024-03-23T10:07:14;22.50;99.50
32400;DHT22;45045;45.440;9.178;2024-03-23T10:09:40;22.70;99.40
32400;DHT22;45045;45.440;9.178;2024-03-23T10:12:14;22.80;99.10
32400;DHT22;45045;45.440;9.178;2024-03-23T10:14:40;23.00;99.40
32400;DHT22;45045;45.440;9.178;2024-03-23T10:17:15;23.00;98.90
32400;DHT22;45045;45.440;9.178;2024-03-23T10:19:48;23.00;98.70
32400;DHT22;45045;45.440;9.178;2024-03-23T10:22:21;22.90;99.00
32400;DHT22;45045;45.440;9.178;2024-03-23T10:24:48;22.80;99.00
32400;DHT22;45045;45.440;9.178;2024-03-23T10:27:23;22.70;99.00
32400;DHT22;45045;45.440;9.178;2024-03-23T10:29:49;22.70;99.10
32400;DHT22;45045;45.440;9.178;2024-03-23T10:32:17;22.70;99.10
32400;DHT22;45045;45.440;9.178;2024-03-23T10:34:43;22.90;99.10
32400;DHT22;45045;45.440;9.178;2024-03-23T10:37:09;23.00;98.70
32400;DHT22;45045;45.440;9.178;2024-03-23T10:39:39;23.00;98.70
32400;DHT22;45045;45.440;9.178;2024-03-23T10:42:07;23.00;98.80
32400;DHT22;45045;45.440;9.178;2024-03-23T10:44:33;23.10;98.60
32400;DHT22;45045;45.440;9.178;2024-03-23T10:47:03;23.10;98.50
32400;DHT22;45045;45.440;9.178;2024-03-23T10:49:30;23.10;98.60
32400;DHT22;45045;45.440;9.178;2024-03-23T10:51:58;23.20;98.40
32400;DHT22;45045;45.440;9.178;2024-03-23T10:54:27;23.20;98.40
32400;DHT22;45045;45.440;9.178;2024-03-23T10:57:06;23.30;98.20
32400;DHT22;45045;45.440;9.178;2024-03-23T10:59:34;23.20;98.00
32400;DHT22;45045;45.440;9.178;2024-03-23T11:02:01;23.20;98.20
32400;DHT22;45045;45.440;9.178;2024-03-23T11:04:37;23.10;98.40
32400;DHT22;45045;45.440;9.178;2024-03-23T11:09:53;23.20;98.40
32400;DHT22;45045;45.440;9.178;2024-03-23T11:15:04;23.20;98.50
32400;DHT22;45045;45.440;9.178;2024-03-23T11:17:30;23.30;98.30
32400;DHT22;45045;45.440;9.178;2024-03-23T11:25:04;23.90;97.40
32400;DHT22;45045;45.440;9.178;2024-03-23T11:27:37;24.00;97.20
32400;DHT22;45045;45.440;9.178;2024-03-23T11:32:37;24.00;97.30
32400;DHT22;45045;45.440;9.178;2024-03-23T11:35:03;24.00;97.10
32400;DHT22;45045;45.440;9.178;2024-03-23T11:37:29;24.00;97.10
32400;DHT22;45045;45.440;9.178;2024-03-23T11:39:55;24.00;97.20
32400;DHT22;45045;45.440;9.178;2024-03-23T11:42:21;24.00;97.10
32400;DHT22;45045;45.440;9.178;2024-03-23T11:44:47;23.80;97.30
32400;DHT22;45045;45.440;9.178;2024-03-23T11:47:13;23.80;97.50
32400;DHT22;45045;45.440;9.178;2024-03-23T11:49:38;23.70;97.70
32400;DHT22;45045;45.440;9.178;2024-03-23T11:52:06;23.80;97.60
32400;DHT22;45045;45.440;9.178;2024-03-23T11:54:33;23.80;97.70
32400;DHT22;45045;45.440;9.178;2024-03-23T11:57:03;23.90;97.70
32400;DHT22;45045;45.440;9.178;2024-03-23T11:59:34;23.60;98.00
32400;DHT22;45045;45.440;9.178;2024-03-23T12:01:59;23.50;98.10
32400;DHT22;45045;45.440;9.178;2024-03-23T12:04:29;23.60;98.00
32400;DHT22;45045;45.440;9.178;2024-03-23T12:07:19;23.60;97.90
32400;DHT22;45045;45.440;9.178;2024-03-23T12:10:08;23.50;97.10
32400;DHT22;45045;45.440;9.178;2024-03-23T12:12:34;23.70;97.50
32400;DHT22;45045;45.440;9.178;2024-03-23T12:15:07;23.80;97.50
32400;DHT22;45045;45.440;9.178;2024-03-23T12:17:34;23.70;97.10
32400;DHT22;45045;45.440;9.178;2024-03-23T12:20:01;23.60;97.10
32400;DHT22;45045;45.440;9.178;2024-03-23T12:22:27;23.60;97.60
32400;DHT22;45045;45.440;9.178;2024-03-23T12:24:54;23.60;97.40
32400;DHT22;45045;45.440;9.178;2024-03-23T12:27:20;23.70;97.20
32400;DHT22;45045;45.440;9.178;2024-03-23T12:29:46;23.70;96.90
32400;DHT22;45045;45.440;9.178;2024-03-23T12:32:13;23.80;96.40
32400;DHT22;45045;45.440;9.178;2024-03-23T12:34:39;23.90;96.30
32400;DHT22;45045;45.440;9.178;2024-03-23T12:37:05;23.90;96.50
32400;DHT22;45045;45.440;9.178;2024-03-23T12:39:31;23.70;96.50
32400;DHT22;45045;45.440;9.178;2024-03-23T12:41:57;23.80;96.30
32400;DHT22;45045;45.440;9.178;2024-03-23T12:44:23;23.90;96.00
32400;DHT22;45045;45.440;9.178;2024-03-23T12:46:48;23.80;95.70
32400;DHT22;45045;45.440;9.178;2024-03-23T12:49:14;24.00;95.70
32400;DHT22;45045;45.440;9.178;2024-03-23T12:51:48;24.00;95.50
32400;DHT22;45045;45.440;9.178;2024-03-23T12:54:18;24.00;95.80
32400;DHT22;45045;45.440;9.178;2024-03-23T12:56:43;24.10;95.40
32400;DHT22;45045;45.440;9.178;2024-03-23T12:59:10;24.10;95.40
32400;DHT22;45045;45.440;9.178;2024-03-23T13:01:36;24.30;95.30
32400;DHT22;45045;45.440;9.178;2024-03-23T13:04:02;24.40;94.80
32400;DHT22;45045;45.440;9.178;2024-03-23T13:06:28;24.30;94.50
32400;DHT22;45045;45.440;9.178;2024-03-23T13:08:57;24.30;94.80
32400;DHT22;45045;45.440;9.178;2024-03-23T13:11:23;24.30;94.90
32400;DHT22;45045;45.440;9.178;2024-03-23T13:13:49;24.30;94.70
32400;DHT22;45045;45.440;9.178;2024-03-23T13:16:14;24.30;94.40
32400;DHT22;45045;45.440;9.178;2024-03-23T13:18:40;24.30;94.50
32400;DHT22;45045;45.440;9.178;2024-03-23T13:21:06;24.30;94.90
32400;DHT22;45045;45.440;9.178;2024-03-23T13:23:31;24.50;94.30
32400;DHT22;45045;45.440;9.178;2024-03-23T13:25:58;24.30;94.60
32400;DHT22;45045;45.440;9.178;2024-03-23T13:28:24;24.40;94.50
32400;DHT22;45045;45.440;9.178;2024-03-23T13:30:53;24.40;94.50
32400;DHT22;45045;45.440;9.178;2024-03-23T13:33:19;24.20;94.70
32400;DHT22;45045;45.440;9.178;2024-03-23T13:35:54;24.20;94.80
32400;DHT22;45045;45.440;9.178;2024-03-23T13:38:23;24.30;94.50
32400;DHT22;45045;45.440;9.178;2024-03-23T13:40:56;24.30;94.40
32400;DHT22;45045;45.440;9.178;2024-03-23T13:43:23;24.20;94.60
32400;DHT22;45045;45.440;9.178;2024-03-23T13:45:52;24.10;94.70
32400;DHT22;45045;45.440;9.178;2024-03-23T13:48:22;24.00;94.90
32400;DHT22;45045;45.440;9.178;2024-03-23T13:51:04;23.90;95.00
32400;DHT22;45045;45.440;9.178;2024-03-23T13:53:30;24.00;94.90
32400;DHT22;45045;45.440;9.178;2024-03-23T13:55:56;24.00;95.00
32400;DHT22;45045;45.440;9.178;2024-03-23T13:58:22;23.90;95.00
32400;DHT22;45045;45.440;9.178;2024-03-23T14:00:51;24.10;94.80
32400;DHT22;45045;45.440;9.178;2024-03-23T14:03:17;24.00;94.90
32400;DHT22;45045;45.440;9.178;2024-03-23T14:05:46;24.20;94.80
32400;DHT22;45045;45.440;9.178;2024-03-23T14:08:12;24.20;94.70
32400;DHT22;45045;45.440;9.178;2024-03-23T14:10:42;24.20;94.50
32400;DHT22;45045;45.440;9.178;2024-03-23T14:13:07;24.00;94.70
32400;DHT22;45045;45.440;9.178;2024-03-23T14:15:33;24.20;94.40
32400;DHT22;45045;45.440;9.178;2024-03-23T14:17:59;24.10;94.50
32400;DHT22;45045;45.440;9.178;2024-03-23T14:20:25;23.90;94.50
32400;DHT22;45045;45.440;9.178;2024-03-23T14:22:52;24.00;94.50
32400;DHT22;45045;45.440;9.178;2024-03-23T14:25:17;24.00;94.60
32400;DHT22;45045;45.440;9.178;2024-03-23T14:27:44;24.20;94.60
32400;DHT22;45045;45.440;9.178;2024-03-23T14:30:10;24.30;94.40
32400;DHT22;45045;45.440;9.178;2024-03-23T14:32:37;24.20;94.20
32400;DHT22;45045;45.440;9.178;2024-03-23T14:35:04;24.20;94.30
32400;DHT22;45045;45.440;9.178;2024-03-23T14:37:30;24.30;94.20
32400;DHT22;45045;45.440;9.178;2024-03-23T14:39:56;24.50;94.10
32400;DHT22;45045;45.440;9.178;2024-03-23T14:42:23;24.30;93.90
32400;DHT22;45045;45.440;9.178;2024-03-23T14:44:49;24.20;93.80
32400;DHT22;45045;45.440;9.178;2024-03-23T14:47:16;24.00;94.30
32400;DHT22;45045;45.440;9.178;2024-03-23T14:49:43;24.00;94.20
32400;DHT22;45045;45.440;9.178;2024-03-23T14:52:13;24.20;94.30
32400;DHT22;45045;45.440;9.178;2024-03-23T14:54:39;24.30;94.10
32400;DHT22;45045;45.440;9.178;2024-03-23T14:57:04;24.20;94.10
32400;DHT22;45045;45.440;9.178;2024-03-23T14:59:31;24.20;94.10
32400;DHT22;45045;45.440;9.178;2024-03-23T15:01:57;24.30;94.10
32400;DHT22;45045;45.440;9.178;2024-03-23T15:04:23;24.40;93.80
32400;DHT22;45045;45.440;9.178;2024-03-23T15:06:49;24.30;93.80
32400;DHT22;45045;45.440;9.178;2024-03-23T15:09:15;24.30;93.80
32400;DHT22;45045;45.440;9.178;2024-03-23T15:11:41;24.30;93.90
32400;DHT22;45045;45.440;9.178;2024-03-23T15:14:07;24.30;93.70
32400;DHT22;45045;45.440;9.178;2024-03-23T15:16:33;24.20;94.00
32400;DHT22;45045;45.440;9.178;2024-03-23T15:18:59;24.30;94.10
32400;DHT22;45045;45.440;9.178;2024-03-23T15:21:25;24.40;94.00
32400;DHT22;45045;45.440;9.178;2024-03-23T15:23:51;24.30;93.90
32400;DHT22;45045;45.440;9.178;2024-03-23T15:26:16;24.40;94.00
32400;DHT22;45045;45.440;9.178;2024-03-23T15:28:42;24.60;93.80
32400;DHT22;45045;45.440;9.178;2024-03-23T15:31:23;24.70;93.60
32400;DHT22;45045;45.440;9.178;2024-03-23T15:33:49;24.80;93.50
32400;DHT22;45045;45.440;9.178;2024-03-23T15:36:15;24.70;93.70
32400;DHT22;45045;45.440;9.178;2024-03-23T15:38:41;24.80;94.20
32400;DHT22;45045;45.440;9.178;2024-03-23T15:41:08;24.70;94.30
32400;DHT22;45045;45.440;9.178;2024-03-23T15:43:34;24.60;94.10
32400;DHT22;45045;45.440;9.178;2024-03-23T15:46:05;24.50;95.30
32400;DHT22;45045;45.440;9.178;2024-03-23T15:48:31;24.60;94.30
32400;DHT22;45045;45.440;9.178;2024-03-23T15:50:59;24.60;94.20
32400;DHT22;45045;45.440;9.178;2024-03-23T15:53:26;24.60;94.30
32400;DHT22;45045;45.440;9.178;2024-03-23T15:58:20;24.40;94.30
32400;DHT22;45045;45.440;9.178;2024-03-23T16:01:04;24.20;94.70
32400;DHT22;45045;45.440;9.178;2024-03-23T16:03:30;24.20;94.80
32400;DHT22;45045;45.440;9.178;2024-03-23T16:05:59;24.20;94.90
32400;DHT22;45045;45.440;9.178;2024-03-23T16:08:25;24.10;95.10
32400;DHT22;45045;45.440;9.178;2024-03-23T16:10:52;24.00;95.40
32400;DHT22;45045;45.440;9.178;2024-03-23T16:13:18;24.00;95.60
32400;DHT22;45045;45.440;9.178;2024-03-23T16:15:45;23.80;95.80
32400;DHT22;45045;45.440;9.178;2024-03-23T16:18:11;23.60;96.00
32400;DHT22;45045;45.440;9.178;2024-03-23T16:20:37;23.50;96.30
32400;DHT22;45045;45.440;9.178;2024-03-23T16:23:03;23.50;96.30
32400;DHT22;45045;45.440;9.178;2024-03-23T16:25:29;23.50;96.30
32400;DHT22;45045;45.440;9.178;2024-03-23T16:27:56;23.60;96.30
32400;DHT22;45045;45.440;9.178;2024-03-23T16:30:22;23.70;96.10
32400;DHT22;45045;45.440;9.178;2024-03-23T16:32:48;23.70;96.10
32400;DHT22;45045;45.440;9.178;2024-03-23T16:35:14;23.70;96.00
32400;DHT22;45045;45.440;9.178;2024-03-23T16:37:40;23.70;95.90
32400;DHT22;45045;45.440;9.178;2024-03-23T16:40:06;23.90;95.70